sensor_id;sensor_type;location;lat;lon;timestamp;pressure;altitude;pressure_sealevel;temperature;humidity
78144;BME280;67394;52.522;13.622;2023-07-24T00:00:17;100007.22;;;17.70;80.82
78144;BME280;67394;52.522;13.622;2023-07-24T00:02:47;100006.22;;;17.74;80.68
78144;BME280;67394;52.522;13.622;2023-07-24T00:05:14;100014.84;;;17.74;80.75
78144;BME280;67394;52.522;13.622;2023-07-24T00:07:41;100011.34;;;17.75;79.93
78144;BME280;67394;52.522;13.622;2023-07-24T00:10:08;100001.69;;;17.79;80.64
78144;BME280;67394;52.522;13.622;2023-07-24T00:12:36;100002.47;;;17.81;80.12
78144;BME280;67394;52.522;13.622;2023-07-24T00:15:04;99994.69;;;17.81;80.24
78144;BME280;67394;52.522;13.622;2023-07-24T00:17:30;99994.63;;;17.82;79.84
78144;BME280;67394;52.522;13.622;2023-07-24T00:19:57;100001.56;;;17.82;80.02
78144;BME280;67394;52.522;13.622;2023-07-24T00:22:24;99998.78;;;17.86;79.11
78144;BME280;67394;52.522;13.622;2023-07-24T00:24:51;99996.13;;;17.88;78.28
78144;BME280;67394;52.522;13.622;2023-07-24T00:27:18;99996.13;;;17.88;78.51
78144;BME280;67394;52.522;13.622;2023-07-24T00:29:44;99990.81;;;17.91;77.95
78144;BME280;67394;52.522;13.622;2023-07-24T00:32:11;99988.94;;;17.95;77.94
78144;BME280;67394;52.522;13.622;2023-07-24T00:34:38;99984.59;;;17.95;77.50
78144;BME280;67394;52.522;13.622;2023-07-24T00:37:05;99983.69;;;17.96;78.04
78144;BME280;67394;52.522;13.622;2023-07-24T00:39:31;99981.88;;;17.98;77.50
78144;BME280;67394;52.522;13.622;2023-07-24T00:41:58;99977.47;;;18.00;77.48
78144;BME280;67394;52.522;13.622;2023-07-24T00:44:25;99976.63;;;18.00;77.29
78144;BME280;67394;52.522;13.622;2023-07-24T00:46:51;99981.03;;;17.98;76.77
78144;BME280;67394;52.522;13.622;2023-07-24T00:49:19;99974.22;;;17.95;77.27
78144;BME280;67394;52.522;13.622;2023-07-24T00:51:47;99973.38;;;17.95;77.56
78144;BME280;67394;52.522;13.622;2023-07-24T00:54:15;99965.66;;;17.93;77.95
78144;BME280;67394;52.522;13.622;2023-07-24T00:56:44;99961.44;;;17.90;77.37
78144;BME280;67394;52.522;13.622;2023-07-24T00:59:15;99967.56;;;17.89;76.55
78144;BME280;67394;52.522;13.622;2023-07-24T01:01:43;99961.38;;;17.92;76.76
78144;BME280;67394;52.522;13.622;2023-07-24T01:04:10;99952.69;;;17.93;75.99
78144;BME280;67394;52.522;13.622;2023-07-24T01:06:37;99950.09;;;17.93;76.06
78144;BME280;67394;52.522;13.622;2023-07-24T01:09:03;99942.31;;;17.93;75.63
78144;BME280;67394;52.522;13.622;2023-07-24T01:11:37;99939.59;;;17.96;75.84
78144;BME280;67394;52.522;13.622;2023-07-24T01:14:13;99942.19;;;17.96;75.85
78144;BME280;67394;52.522;13.622;2023-07-24T01:16:42;99944.84;;;17.95;75.32
78144;BME280;67394;52.522;13.622;2023-07-24T01:19:20;99938.94;;;17.91;75.77
78144;BME280;67394;52.522;13.622;2023-07-24T01:22:01;99927.09;;;17.85;76.93
78144;BME280;67394;52.522;13.622;2023-07-24T01:24:34;99935.00;;;17.82;77.85
78144;BME280;67394;52.522;13.622;2023-07-24T01:27:02;99932.72;;;17.75;77.91
78144;BME280;67394;52.522;13.622;2023-07-24T01:29:29;99930.41;;;17.69;77.22
78144;BME280;67394;52.522;13.622;2023-07-24T01:31:55;99928.03;;;17.63;78.20
78144;BME280;67394;52.522;13.622;2023-07-24T01:34:22;99930.66;;;17.61;77.99
78144;BME280;67394;52.522;13.622;2023-07-24T01:36:49;99929.16;;;17.55;80.31
78144;BME280;67394;52.522;13.622;2023-07-24T01:39:17;99933.50;;;17.55;78.64
78144;BME280;67394;52.522;13.622;2023-07-24T01:41:44;99929.22;;;17.54;78.83
78144;BME280;67394;52.522;13.622;2023-07-24T01:44:11;99927.47;;;17.54;78.69
78144;BME280;67394;52.522;13.622;2023-07-24T01:46:37;99937.06;;;17.52;78.61
78144;BME280;67394;52.522;13.622;2023-07-24T01:49:04;99928.38;;;17.53;78.85
78144;BME280;67394;52.522;13.622;2023-07-24T01:51:30;99930.91;;;17.55;78.96
78144;BME280;67394;52.522;13.622;2023-07-24T01:53:57;99922.31;;;17.54;78.36
78144;BME280;67394;52.522;13.622;2023-07-24T01:56:24;99924.88;;;17.54;78.07
78144;BME280;67394;52.522;13.622;2023-07-24T01:58:50;99925.75;;;17.55;77.83
78144;BME280;67394;52.522;13.622;2023-07-24T02:01:16;99919.72;;;17.54;78.20
78144;BME280;67394;52.522;13.622;2023-07-24T02:03:43;99919.72;;;17.54;78.00
78144;BME280;67394;52.522;13.622;2023-07-24T02:06:09;99918.81;;;17.55;77.54
78144;BME280;67394;52.522;13.622;2023-07-24T02:08:36;99917.75;;;17.60;77.16
78144;BME280;67394;52.522;13.622;2023-07-24T02:11:02;99913.34;;;17.62;77.18
78144;BME280;67394;52.522;13.622;2023-07-24T02:13:28;99918.50;;;17.63;76.79
78144;BME280;67394;52.522;13.622;2023-07-24T02:15:55;99914.13;;;17.65;75.93
78144;BME280;67394;52.522;13.622;2023-07-24T02:18:21;99911.47;;;17.67;76.36
78144;BME280;67394;52.522;13.622;2023-07-24T02:20:49;99901.88;;;17.69;76.23
78144;BME280;67394;52.522;13.622;2023-07-24T02:23:15;99897.50;;;17.69;76.56
78144;BME280;67394;52.522;13.622;2023-07-24T02:25:42;99899.13;;;17.72;75.70
78144;BME280;67394;52.522;13.622;2023-07-24T02:28:08;99891.97;;;17.78;75.60
78144;BME280;67394;52.522;13.622;2023-07-24T02:30:39;99890.97;;;17.81;75.79
78144;BME280;67394;52.522;13.622;2023-07-24T02:33:05;99894.34;;;17.83;75.26
78144;BME280;67394;52.522;13.622;2023-07-24T02:35:37;99890.00;;;17.83;75.65
78144;BME280;67394;52.522;13.622;2023-07-24T02:38:04;99887.47;;;17.82;75.83
78144;BME280;67394;52.522;13.622;2023-07-24T02:40:30;99889.88;;;17.86;75.66
78144;BME280;67394;52.522;13.622;2023-07-24T02:42:57;99888.81;;;17.90;75.96
78144;BME280;67394;52.522;13.622;2023-07-24T02:45:23;99890.44;;;17.93;75.65
78144;BME280;67394;52.522;13.622;2023-07-24T02:47:50;99889.38;;;17.99;76.02
78144;BME280;67394;52.522;13.622;2023-07-24T02:50:16;99898.75;;;18.01;75.91
78144;BME280;67394;52.522;13.622;2023-07-24T02:52:42;99899.59;;;18.02;76.40
78144;BME280;67394;52.522;13.622;2023-07-24T02:55:09;99907.97;;;18.08;76.41
78144;BME280;67394;52.522;13.622;2023-07-24T02:57:35;99907.19;;;18.06;76.82
78144;BME280;67394;52.522;13.622;2023-07-24T03:00:02;99914.06;;;18.07;76.93
78144;BME280;67394;52.522;13.622;2023-07-24T03:02:29;99913.78;;;18.13;76.58
78144;BME280;67394;52.522;13.622;2023-07-24T03:04:55;99917.09;;;18.17;77.00
78144;BME280;67394;52.522;13.622;2023-07-24T03:07:22;99911.84;;;18.18;76.29
78144;BME280;67394;52.522;13.622;2023-07-24T03:09:50;99916.91;;;18.21;76.35
78144;BME280;67394;52.522;13.622;2023-07-24T03:12:17;99916.81;;;18.23;76.15
78144;BME280;67394;52.522;13.622;2023-07-24T03:14:43;99925.31;;;18.26;76.41
78144;BME280;67394;52.522;13.622;2023-07-24T03:17:09;99920.06;;;18.28;76.30
78144;BME280;67394;52.522;13.622;2023-07-24T03:19:36;99931.34;;;18.27;77.02
78144;BME280;67394;52.522;13.622;2023-07-24T03:22:02;99927.72;;;18.31;77.25
78144;BME280;67394;52.522;13.622;2023-07-24T03:24:29;99925.97;;;18.32;76.97
78144;BME280;67394;52.522;13.622;2023-07-24T03:26:55;99928.41;;;18.35;76.76
78144;BME280;67394;52.522;13.622;2023-07-24T03:29:22;99922.19;;;18.39;77.33
78144;BME280;67394;52.522;13.622;2023-07-24T03:31:48;99920.50;;;18.38;77.21
78144;BME280;67394;52.522;13.622;2023-07-24T03:34:15;99917.91;;;18.38;77.53
78144;BME280;67394;52.522;13.622;2023-07-24T03:36:41;99919.59;;;18.39;77.82
78144;BME280;67394;52.522;13.622;2023-07-24T03:39:09;99925.56;;;18.41;77.45
78144;BME280;67394;52.522;13.622;2023-07-24T03:41:36;99925.41;;;18.44;77.91
78144;BME280;67394;52.522;13.622;2023-07-24T03:44:02;99922.06;;;18.42;78.22
78144;BME280;67394;52.522;13.622;2023-07-24T03:46:29;99924.50;;;18.45;78.13
78144;BME280;67394;52.522;13.622;2023-07-24T03:48:56;99920.94;;;18.47;78.09
78144;BME280;67394;52.522;13.622;2023-07-24T03:51:22;99917.47;;;18.47;78.74
78144;BME280;67394;52.522;13.622;2023-07-24T03:53:48;99923.47;;;18.49;78.93
78144;BME280;67394;52.522;13.622;2023-07-24T03:56:15;99925.09;;;18.51;79.04
78144;BME280;67394;52.522;13.622;2023-07-24T03:58:41;99930.28;;;18.51;79.28
78144;BME280;67394;52.522;13.622;2023-07-24T04:01:08;99926.72;;;18.54;79.34
78144;BME280;67394;52.522;13.622;2023-07-24T04:03:35;99937.91;;;18.54;79.43
78144;BME280;67394;52.522;13.622;2023-07-24T04:06:02;99921.25;;;18.60;78.95
78144;BME280;67394;52.522;13.622;2023-07-24T04:08:28;99925.53;;;18.61;79.81
78144;BME280;67394;52.522;13.622;2023-07-24T04:10:55;99916.97;;;18.59;79.48
78144;BME280;67394;52.522;13.622;2023-07-24T04:13:21;99929.94;;;18.59;80.05
78144;BME280;67394;52.522;13.622;2023-07-24T04:15:48;99931.50;;;18.63;80.54
78144;BME280;67394;52.522;13.622;2023-07-24T04:18:14;99929.03;;;18.60;82.76
78144;BME280;67394;52.522;13.622;2023-07-24T04:20:41;99933.06;;;18.47;84.25
78144;BME280;67394;52.522;13.622;2023-07-24T04:23:07;99921.84;;;18.46;85.04
78144;BME280;67394;52.522;13.622;2023-07-24T04:25:33;99930.03;;;18.37;85.92
78144;BME280;67394;52.522;13.622;2023-07-24T04:28:00;99919.72;;;18.36;86.32
78144;BME280;67394;52.522;13.622;2023-07-24T04:30:26;99924.06;;;18.35;87.03
78144;BME280;67394;52.522;13.622;2023-07-24T04:32:53;99919.59;;;18.39;85.75
78144;BME280;67394;52.522;13.622;2023-07-24T04:35:19;99918.47;;;18.44;86.43
78144;BME280;67394;52.522;13.622;2023-07-24T04:37:45;99915.97;;;18.43;86.47
78144;BME280;67394;52.522;13.622;2023-07-24T04:40:12;99921.00;;;18.46;86.07
78144;BME280;67394;52.522;13.622;2023-07-24T04:42:38;99919.94;;;18.50;86.59
78144;BME280;67394;52.522;13.622;2023-07-24T04:45:05;99922.47;;;18.51;86.63
78144;BME280;67394;52.522;13.622;2023-07-24T04:47:32;99922.31;;;18.54;86.16
78144;BME280;67394;52.522;13.622;2023-07-24T04:49:58;99924.00;;;18.55;86.72
78144;BME280;67394;52.522;13.622;2023-07-24T04:52:25;99921.34;;;18.57;86.97
78144;BME280;67394;52.522;13.622;2023-07-24T04:54:51;99913.47;;;18.60;85.85
78144;BME280;67394;52.522;13.622;2023-07-24T04:57:17;99912.56;;;18.61;86.55
78144;BME280;67394;52.522;13.622;2023-07-24T04:59:44;99915.88;;;18.64;86.53
78144;BME280;67394;52.522;13.622;2023-07-24T05:02:10;99913.13;;;18.68;86.73
78144;BME280;67394;52.522;13.622;2023-07-24T05:04:37;99916.34;;;18.73;86.26
78144;BME280;67394;52.522;13.622;2023-07-24T05:07:03;99911.84;;;18.76;87.19
78144;BME280;67394;52.522;13.622;2023-07-24T05:09:29;99913.25;;;18.83;85.73
78144;BME280;67394;52.522;13.622;2023-07-24T05:11:56;99921.59;;;18.90;86.08
78144;BME280;67394;52.522;13.622;2023-07-24T05:14:22;99909.16;;;18.96;86.59
78144;BME280;67394;52.522;13.622;2023-07-24T05:16:49;99905.38;;;19.04;85.39
78144;BME280;67394;52.522;13.622;2023-07-24T05:19:15;99907.59;;;19.11;85.83
78144;BME280;67394;52.522;13.622;2023-07-24T05:21:42;99904.56;;;19.20;85.29
78144;BME280;67394;52.522;13.622;2023-07-24T05:24:08;99904.44;;;19.23;85.17
78144;BME280;67394;52.522;13.622;2023-07-24T05:26:35;99903.44;;;19.26;84.28
78144;BME280;67394;52.522;13.622;2023-07-24T05:29:01;99904.03;;;19.31;84.89
78144;BME280;67394;52.522;13.622;2023-07-24T05:31:27;99903.69;;;19.38;83.64
78144;BME280;67394;52.522;13.622;2023-07-24T05:33:54;99898.75;;;19.51;84.13
78144;BME280;67394;52.522;13.622;2023-07-24T05:36:20;99895.03;;;19.57;83.82
78144;BME280;67394;52.522;13.622;2023-07-24T05:38:47;99886.75;;;19.66;82.58
78144;BME280;67394;52.522;13.622;2023-07-24T05:41:13;99900.00;;;19.79;82.28
78144;BME280;67394;52.522;13.622;2023-07-24T05:43:39;99890.81;;;19.89;81.58
78144;BME280;67394;52.522;13.622;2023-07-24T05:46:06;99890.91;;;20.03;80.10
78144;BME280;67394;52.522;13.622;2023-07-24T05:48:32;99882.19;;;20.04;78.70
78144;BME280;67394;52.522;13.622;2023-07-24T05:50:59;99876.25;;;20.02;78.41
78144;BME280;67394;52.522;13.622;2023-07-24T05:53:25;99883.28;;;20.00;79.44
78144;BME280;67394;52.522;13.622;2023-07-24T05:55:59;99877.75;;;20.06;79.56
78144;BME280;67394;52.522;13.622;2023-07-24T05:58:26;99879.88;;;20.15;78.78
78144;BME280;67394;52.522;13.622;2023-07-24T06:00:53;99865.44;;;20.25;78.99
78144;BME280;67394;52.522;13.622;2023-07-24T06:03:19;99866.69;;;20.35;78.03
78144;BME280;67394;52.522;13.622;2023-07-24T06:05:46;99868.34;;;20.36;76.56
78144;BME280;67394;52.522;13.622;2023-07-24T06:08:12;99867.13;;;20.43;76.70
78144;BME280;67394;52.522;13.622;2023-07-24T06:10:39;99858.75;;;20.54;75.75
78144;BME280;67394;52.522;13.622;2023-07-24T06:13:05;99861.00;;;20.60;75.48
78144;BME280;67394;52.522;13.622;2023-07-24T06:15:31;99856.13;;;20.70;74.71
78144;BME280;67394;52.522;13.622;2023-07-24T06:17:58;99844.53;;;20.75;75.27
78144;BME280;67394;52.522;13.622;2023-07-24T06:20:24;99838.81;;;20.85;73.07
78144;BME280;67394;52.522;13.622;2023-07-24T06:22:51;99843.00;;;20.87;72.29
78144;BME280;67394;52.522;13.622;2023-07-24T06:25:17;99850.66;;;20.90;72.87
78144;BME280;67394;52.522;13.622;2023-07-24T06:27:43;99848.19;;;21.03;71.07
78144;BME280;67394;52.522;13.622;2023-07-24T06:30:10;99842.06;;;21.04;71.59
78144;BME280;67394;52.522;13.622;2023-07-24T06:32:39;99839.59;;;21.16;71.02
78144;BME280;67394;52.522;13.622;2023-07-24T06:35:06;99837.59;;;21.22;71.13
78144;BME280;67394;52.522;13.622;2023-07-24T06:37:32;99836.66;;;21.23;70.97
78144;BME280;67394;52.522;13.622;2023-07-24T06:39:59;99831.66;;;21.34;70.51
78144;BME280;67394;52.522;13.622;2023-07-24T06:42:25;99828.91;;;21.37;68.95
78144;BME280;67394;52.522;13.622;2023-07-24T06:44:52;99825.75;;;21.46;69.76
78144;BME280;67394;52.522;13.622;2023-07-24T06:47:18;99826.31;;;21.51;69.56
78144;BME280;67394;52.522;13.622;2023-07-24T06:49:45;99821.66;;;21.56;67.42
78144;BME280;67394;52.522;13.622;2023-07-24T06:52:11;99822.78;;;21.66;67.61
78144;BME280;67394;52.522;13.622;2023-07-24T06:54:39;99831.75;;;21.76;66.82
78144;BME280;67394;52.522;13.622;2023-07-24T06:57:05;99816.75;;;21.80;66.73
78144;BME280;67394;52.522;13.622;2023-07-24T06:59:32;99812.94;;;21.85;66.19
78144;BME280;67394;52.522;13.622;2023-07-24T07:01:58;99806.59;;;21.89;65.87
78144;BME280;67394;52.522;13.622;2023-07-24T07:04:25;99811.53;;;21.94;65.41
78144;BME280;67394;52.522;13.622;2023-07-24T07:06:51;99811.22;;;22.00;66.67
78144;BME280;67394;52.522;13.622;2023-07-24T07:09:18;99815.09;;;22.07;65.59
78144;BME280;67394;52.522;13.622;2023-07-24T07:11:44;99814.34;;;22.05;64.96
78144;BME280;67394;52.522;13.622;2023-07-24T07:14:10;99809.63;;;22.12;64.36
78144;BME280;67394;52.522;13.622;2023-07-24T07:16:37;99806.69;;;22.16;64.58
78144;BME280;67394;52.522;13.622;2023-07-24T07:19:04;99806.03;;;22.27;66.22
78144;BME280;67394;52.522;13.622;2023-07-24T07:21:30;99787.56;;;22.30;63.12
78144;BME280;67394;52.522;13.622;2023-07-24T07:23:56;99786.25;;;22.37;64.24
78144;BME280;67394;52.522;13.622;2023-07-24T07:26:23;99777.28;;;22.41;63.17
78144;BME280;67394;52.522;13.622;2023-07-24T07:28:49;99785.38;;;22.51;62.55
78144;BME280;67394;52.522;13.622;2023-07-24T07:31:16;99785.34;;;22.65;62.87
78144;BME280;67394;52.522;13.622;2023-07-24T07:33:42;99789.50;;;22.68;63.66
78144;BME280;67394;52.522;13.622;2023-07-24T07:36:08;99784.09;;;22.71;61.88
78144;BME280;67394;52.522;13.622;2023-07-24T07:38:35;99788.56;;;22.83;61.37
78144;BME280;67394;52.522;13.622;2023-07-24T07:41:05;99789.22;;;22.86;60.86
78144;BME280;67394;52.522;13.622;2023-07-24T07:43:32;99797.78;;;22.88;61.03
78144;BME280;67394;52.522;13.622;2023-07-24T07:45:58;99807.00;;;22.94;61.19
78144;BME280;67394;52.522;13.622;2023-07-24T07:48:25;99812.72;;;23.13;61.53
78144;BME280;67394;52.522;13.622;2023-07-24T07:50:52;99812.66;;;23.27;60.25
78144;BME280;67394;52.522;13.622;2023-07-24T07:53:18;99818.16;;;23.23;58.98
78144;BME280;67394;52.522;13.622;2023-07-24T07:55:45;99810.41;;;23.21;58.97
78144;BME280;67394;52.522;13.622;2023-07-24T07:58:11;99812.31;;;23.32;59.54
78144;BME280;67394;52.522;13.622;2023-07-24T08:00:38;99809.28;;;23.25;59.10
78144;BME280;67394;52.522;13.622;2023-07-24T08:03:04;99807.41;;;23.27;57.91
78144;BME280;67394;52.522;13.622;2023-07-24T08:05:31;99803.66;;;23.44;58.13
78144;BME280;67394;52.522;13.622;2023-07-24T08:07:58;99816.50;;;23.61;58.17
78144;BME280;67394;52.522;13.622;2023-07-24T08:10:24;99810.19;;;23.64;57.69
78144;BME280;67394;52.522;13.622;2023-07-24T08:12:50;99798.16;;;23.74;56.56
78144;BME280;67394;52.522;13.622;2023-07-24T08:15:17;99802.13;;;23.80;57.07
78144;BME280;67394;52.522;13.622;2023-07-24T08:17:43;99804.75;;;23.92;56.52
78144;BME280;67394;52.522;13.622;2023-07-24T08:20:10;99794.91;;;23.83;54.81
78144;BME280;67394;52.522;13.622;2023-07-24T08:22:36;99791.34;;;23.84;55.81
78144;BME280;67394;52.522;13.622;2023-07-24T08:25:03;99793.00;;;23.98;55.24
78144;BME280;67394;52.522;13.622;2023-07-24T08:27:29;99790.59;;;23.95;55.77
78144;BME280;67394;52.522;13.622;2023-07-24T08:29:56;99782.19;;;24.15;55.81
78144;BME280;67394;52.522;13.622;2023-07-24T08:32:22;99774.09;;;24.18;55.46
78144;BME280;67394;52.522;13.622;2023-07-24T08:34:49;99780.19;;;24.31;56.59
78144;BME280;67394;52.522;13.622;2023-07-24T08:37:15;99771.66;;;24.40;55.43
78144;BME280;67394;52.522;13.622;2023-07-24T08:39:42;99768.78;;;24.56;54.16
78144;BME280;67394;52.522;13.622;2023-07-24T08:42:09;99772.91;;;24.71;55.83
78144;BME280;67394;52.522;13.622;2023-07-24T08:44:36;99766.75;;;24.84;53.60
78144;BME280;67394;52.522;13.622;2023-07-24T08:47:04;99763.97;;;24.74;52.65
78144;BME280;67394;52.522;13.622;2023-07-24T08:49:31;99764.72;;;24.76;52.82
78144;BME280;67394;52.522;13.622;2023-07-24T08:51:58;99760.72;;;24.70;54.07
78144;BME280;67394;52.522;13.622;2023-07-24T08:54:27;99749.03;;;24.63;53.53
78144;BME280;67394;52.522;13.622;2023-07-24T08:56:54;99742.75;;;24.66;54.43
78144;BME280;67394;52.522;13.622;2023-07-24T08:59:21;99735.25;;;24.72;54.35
78144;BME280;67394;52.522;13.622;2023-07-24T09:01:47;99749.72;;;24.78;54.58
78144;BME280;67394;52.522;13.622;2023-07-24T09:04:14;99744.38;;;24.91;53.61
78144;BME280;67394;52.522;13.622;2023-07-24T09:06:40;99738.25;;;25.03;53.31
78144;BME280;67394;52.522;13.622;2023-07-24T09:09:16;99732.56;;;25.09;52.72
78144;BME280;67394;52.522;13.622;2023-07-24T09:12:01;99722.34;;;25.39;53.74
78144;BME280;67394;52.522;13.622;2023-07-24T09:14:28;99721.88;;;25.57;54.46
78144;BME280;67394;52.522;13.622;2023-07-24T09:17:09;99731.09;;;25.62;52.92
78144;BME280;67394;52.522;13.622;2023-07-24T09:19:36;99723.34;;;25.61;52.83
78144;BME280;67394;52.522;13.622;2023-07-24T09:22:14;99714.72;;;25.59;52.13
78144;BME280;67394;52.522;13.622;2023-07-24T09:24:51;99715.81;;;25.78;52.60
78144;BME280;67394;52.522;13.622;2023-07-24T09:27:19;99709.91;;;26.08;53.37
78144;BME280;67394;52.522;13.622;2023-07-24T09:29:46;99717.38;;;25.92;51.85
78144;BME280;67394;52.522;13.622;2023-07-24T09:32:23;99717.25;;;25.71;51.38
78144;BME280;67394;52.522;13.622;2023-07-24T09:34:51;99714.03;;;25.79;52.30
78144;BME280;67394;52.522;13.622;2023-07-24T09:37:31;99708.03;;;25.99;51.32
78144;BME280;67394;52.522;13.622;2023-07-24T09:39:59;99707.31;;;25.97;50.26
78144;BME280;67394;52.522;13.622;2023-07-24T09:42:35;99707.03;;;26.22;50.22
78144;BME280;67394;52.522;13.622;2023-07-24T09:45:26;99713.56;;;26.39;49.93
78144;BME280;67394;52.522;13.622;2023-07-24T09:47:54;99713.22;;;26.44;50.38
78144;BME280;67394;52.522;13.622;2023-07-24T09:50:28;99710.69;;;26.42;49.36
78144;BME280;67394;52.522;13.622;2023-07-24T09:52:56;99714.84;;;26.56;49.52
78144;BME280;67394;52.522;13.622;2023-07-24T09:55:36;99715.84;;;26.44;48.45
78144;BME280;67394;52.522;13.622;2023-07-24T09:58:06;99712.25;;;26.77;48.14
78144;BME280;67394;52.522;13.622;2023-07-24T10:00:34;99717.88;;;26.72;48.05
78144;BME280;67394;52.522;13.622;2023-07-24T10:03:01;99711.25;;;26.57;48.02
78144;BME280;67394;52.522;13.622;2023-07-24T10:05:29;99708.16;;;26.52;48.30
78144;BME280;67394;52.522;13.622;2023-07-24T10:07:56;99704.66;;;26.83;47.99
78144;BME280;67394;52.522;13.622;2023-07-24T10:10:23;99703.09;;;27.13;47.44
78144;BME280;67394;52.522;13.622;2023-07-24T10:12:50;99690.09;;;27.11;47.15
78144;BME280;67394;52.522;13.622;2023-07-24T10:15:17;99683.16;;;27.10;46.61
78144;BME280;67394;52.522;13.622;2023-07-24T10:17:46;99691.66;;;27.23;47.56
78144;BME280;67394;52.522;13.622;2023-07-24T10:20:12;99683.31;;;27.18;46.33
78144;BME280;67394;52.522;13.622;2023-07-24T10:22:42;99670.47;;;27.25;46.46
78144;BME280;67394;52.522;13.622;2023-07-24T10:25:10;99671.97;;;27.48;45.85
78144;BME280;67394;52.522;13.622;2023-07-24T10:27:47;99667.28;;;27.52;44.91
78144;BME280;67394;52.522;13.622;2023-07-24T10:30:15;99660.66;;;27.57;44.87
78144;BME280;67394;52.522;13.622;2023-07-24T10:33:44;99654.06;;;27.73;43.82
78144;BME280;67394;52.522;13.622;2023-07-24T10:36:08;99656.97;;;27.69;43.79
78144;BME280;67394;52.522;13.622;2023-07-24T10:38:37;99635.22;;;27.87;43.94
78144;BME280;67394;52.522;13.622;2023-07-24T10:41:06;99640.66;;;27.85;44.34
78144;BME280;67394;52.522;13.622;2023-07-24T10:43:50;99636.16;;;27.76;43.25
78144;BME280;67394;52.522;13.622;2023-07-24T10:46:18;99636.63;;;27.91;42.52
78144;BME280;67394;52.522;13.622;2023-07-24T10:48:50;99622.38;;;28.13;42.75
78144;BME280;67394;52.522;13.622;2023-07-24T10:51:18;99634.56;;;28.14;42.50
78144;BME280;67394;52.522;13.622;2023-07-24T10:53:48;99610.28;;;28.10;42.56
78144;BME280;67394;52.522;13.622;2023-07-24T10:56:16;99616.94;;;27.95;42.04
78144;BME280;67394;52.522;13.622;2023-07-24T10:58:43;99613.59;;;27.74;42.58
78144;BME280;67394;52.522;13.622;2023-07-24T11:01:10;99602.19;;;27.63;43.07
78144;BME280;67394;52.522;13.622;2023-07-24T11:03:40;99583.94;;;28.00;42.23
78144;BME280;67394;52.522;13.622;2023-07-24T11:06:18;99573.84;;;28.34;41.28
78144;BME280;67394;52.522;13.622;2023-07-24T11:08:55;99581.00;;;28.61;41.03
78144;BME280;67394;52.522;13.622;2023-07-24T11:11:30;99572.97;;;28.53;39.63
78144;BME280;67394;52.522;13.622;2023-07-24T11:14:01;99556.69;;;28.67;39.49
78144;BME280;67394;52.522;13.622;2023-07-24T11:16:30;99557.69;;;29.03;40.24
78144;BME280;67394;52.522;13.622;2023-07-24T11:18:56;99540.06;;;29.04;38.64
78144;BME280;67394;52.522;13.622;2023-07-24T11:21:23;99550.31;;;28.70;40.45
78144;BME280;67394;52.522;13.622;2023-07-24T11:23:53;99528.50;;;28.77;40.01
78144;BME280;67394;52.522;13.622;2023-07-24T11:26:21;99531.28;;;29.03;39.06
78144;BME280;67394;52.522;13.622;2023-07-24T11:28:50;99537.56;;;29.30;39.44
78144;BME280;67394;52.522;13.622;2023-07-24T11:31:16;99530.50;;;28.93;38.62
78144;BME280;67394;52.522;13.622;2023-07-24T11:33:44;99527.41;;;28.70;39.17
78144;BME280;67394;52.522;13.622;2023-07-24T11:36:11;99521.47;;;28.59;40.29
78144;BME280;67394;52.522;13.622;2023-07-24T11:38:37;99519.84;;;28.85;40.03
78144;BME280;67394;52.522;13.622;2023-07-24T11:41:04;99517.50;;;28.72;40.04
78144;BME280;67394;52.522;13.622;2023-07-24T11:43:31;99519.13;;;28.46;38.88
78144;BME280;67394;52.522;13.622;2023-07-24T11:45:57;99508.28;;;28.39;40.82
78144;BME280;67394;52.522;13.622;2023-07-24T11:48:24;99510.56;;;28.05;39.62
78144;BME280;67394;52.522;13.622;2023-07-24T11:50:53;99511.69;;;27.84;40.54
78144;BME280;67394;52.522;13.622;2023-07-24T11:55:46;99495.03;;;28.22;39.30
78144;BME280;67394;52.522;13.622;2023-07-24T11:58:16;99501.25;;;28.30;39.00
78144;BME280;67394;52.522;13.622;2023-07-24T12:00:43;99510.22;;;28.57;39.66
78144;BME280;67394;52.522;13.622;2023-07-24T12:03:10;99491.97;;;28.26;39.26
78144;BME280;67394;52.522;13.622;2023-07-24T12:05:40;99487.81;;;28.14;39.94
78144;BME280;67394;52.522;13.622;2023-07-24T12:08:08;99489.34;;;27.88;39.36
78144;BME280;67394;52.522;13.622;2023-07-24T12:10:37;99491.28;;;27.76;39.92
78144;BME280;67394;52.522;13.622;2023-07-24T12:13:06;99489.78;;;27.74;40.01
78144;BME280;67394;52.522;13.622;2023-07-24T12:15:33;99497.81;;;27.72;40.17
78144;BME280;67394;52.522;13.622;2023-07-24T12:18:01;99502.38;;;27.60;39.77
78144;BME280;67394;52.522;13.622;2023-07-24T12:20:30;99496.91;;;27.33;40.38
78144;BME280;67394;52.522;13.622;2023-07-24T12:22:57;99499.81;;;27.30;41.02
78144;BME280;67394;52.522;13.622;2023-07-24T12:25:24;99492.03;;;27.19;40.98
78144;BME280;67394;52.522;13.622;2023-07-24T12:27:50;99484.66;;;27.13;41.63
78144;BME280;67394;52.522;13.622;2023-07-24T12:30:17;99482.41;;;26.99;41.33
78144;BME280;67394;52.522;13.622;2023-07-24T12:32:43;99493.72;;;26.89;41.06
78144;BME280;67394;52.522;13.622;2023-07-24T12:35:10;99496.44;;;26.78;40.73
78144;BME280;67394;52.522;13.622;2023-07-24T12:37:41;99516.06;;;26.74;41.30
78144;BME280;67394;52.522;13.622;2023-07-24T12:40:08;99541.34;;;26.66;40.74
78144;BME280;67394;52.522;13.622;2023-07-24T12:42:35;99535.34;;;26.33;45.55
78144;BME280;67394;52.522;13.622;2023-07-24T12:45:02;99547.22;;;25.64;48.53
78144;BME280;67394;52.522;13.622;2023-07-24T12:47:29;99545.81;;;24.93;52.22
78144;BME280;67394;52.522;13.622;2023-07-24T12:49:56;99540.41;;;24.61;53.78
78144;BME280;67394;52.522;13.622;2023-07-24T12:52:23;99548.22;;;24.38;54.67
78144;BME280;67394;52.522;13.622;2023-07-24T12:54:50;99570.94;;;24.27;56.24